Time;durP1;ratioP1;P1;durP2;ratioP2;P2;SDS_P1;SDS_P2;PMS_P1;PMS_P2;Temp;Humidity;BMP_temperature;BMP_pressure;BME280_temperature;BME280_humidity;BME280_pressure;Samples;Min_cycle;Max_cycle;Signal;HPM_P1;HPM_P2
2022/03/07 00:00:35;;;;;;;11.07;9.98;;;2.50;59.60;;;;;;5088200;28;20200;-82
2022/03/07 00:03:03;;;;;;;11.10;9.25;;;2.50;59.80;;;;;;5097764;28;20231;-82
2022/03/07 00:05:30;;;;;;;11.15;9.25;;;2.40;59.90;;;;;;5098677;28;20196;-83
2022/03/07 00:07:57;;;;;;;9.35;8.55;;;2.40;60.50;;;;;;5084671;28;20707;-83
2022/03/07 00:10:23;;;;;;;11.38;9.68;;;2.40;60.40;;;;;;5090055;28;20199;-82
2022/03/07 00:12:50;;;;;;;11.73;9.70;;;2.30;60.90;;;;;;5084794;28;20199;-83
2022/03/07 00:15:17;;;;;;;10.85;9.85;;;2.20;61.40;;;;;;5086605;28;20199;-82
2022/03/07 00:17:45;;;;;;;11.07;9.80;;;2.30;61.80;;;;;;5088968;28;20223;-83
2022/03/07 00:20:13;;;;;;;10.57;9.50;;;2.10;61.90;;;;;;5098953;28;20210;-83
2022/03/07 00:22:39;;;;;;;11.25;10.15;;;2.20;62.50;;;;;;5093479;28;20246;-83
2022/03/07 00:25:07;;;;;;;10.27;9.38;;;2.30;62.70;;;;;;5093874;28;20203;-83
2022/03/07 00:27:34;;;;;;;9.85;8.82;;;2.20;62.90;;;;;;5088018;28;20691;-83
2022/03/07 00:30:01;;;;;;;12.57;11.27;;;2.30;62.80;;;;;;5092368;28;20206;-83
2022/03/07 00:32:29;;;;;;;11.63;10.43;;;2.30;63.00;;;;;;5092684;28;20234;-83
2022/03/07 00:34:57;;;;;;;10.45;9.25;;;2.20;62.80;;;;;;5097693;28;20222;-84
2022/03/07 00:37:24;;;;;;;12.00;11.00;;;2.10;62.80;;;;;;5092338;28;20237;-83
2022/03/07 00:39:51;;;;;;;10.45;9.35;;;1.90;62.70;;;;;;5087817;28;20205;-84
2022/03/07 00:42:17;;;;;;;9.32;8.43;;;1.80;63.20;;;;;;5097022;28;20207;-83
2022/03/07 00:44:44;;;;;;;11.68;10.13;;;1.90;63.80;;;;;;5093453;28;20677;-83
2022/03/07 00:47:11;;;;;;;8.98;8.13;;;1.90;64.20;;;;;;5085401;28;20229;-83
2022/03/07 00:49:38;;;;;;;10.95;9.85;;;1.80;64.30;;;;;;5093151;28;20223;-83
2022/03/07 00:52:06;;;;;;;10.73;9.73;;;1.90;64.60;;;;;;5087132;28;20204;-83
2022/03/07 00:54:33;;;;;;;9.55;8.75;;;2.00;64.60;;;;;;5097095;28;20212;-83
2022/03/07 00:57:00;;;;;;;9.82;9.00;;;2.00;64.70;;;;;;5096914;28;20197;-83
2022/03/07 00:59:27;;;;;;;11.30;10.00;;;1.80;64.50;;;;;;5086135;28;20206;-84
2022/03/07 01:01:53;;;;;;;10.77;9.15;;;1.90;65.10;;;;;;5087430;28;20203;-83
2022/03/07 01:04:20;;;;;;;10.57;8.52;;;1.90;65.00;;;;;;5092763;28;20707;-83
2022/03/07 01:06:47;;;;;;;10.18;9.38;;;1.90;65.30;;;;;;5088968;28;20199;-83
2022/03/07 01:09:15;;;;;;;10.95;9.60;;;1.90;65.50;;;;;;5089281;28;20585;-83
2022/03/07 01:11:42;;;;;;;8.20;7.30;;;1.90;65.90;;;;;;5084864;28;20694;-83
2022/03/07 01:14:09;;;;;;;10.55;9.75;;;2.00;66.10;;;;;;5084708;28;20683;-83
2022/03/07 01:16:36;;;;;;;9.52;8.05;;;1.90;65.90;;;;;;5089231;28;20195;-83
2022/03/07 01:19:03;;;;;;;9.75;8.85;;;1.80;65.70;;;;;;5091325;28;20219;-83
2022/03/07 01:21:29;;;;;;;9.45;7.95;;;1.80;66.10;;;;;;5091980;28;20196;-83
2022/03/07 01:23:56;;;;;;;10.27;9.32;;;1.60;66.50;;;;;;5096482;28;20203;-83
2022/03/07 01:26:24;;;;;;;9.60;8.70;;;1.70;67.10;;;;;;5089726;28;20204;-83
2022/03/07 01:28:51;;;;;;;9.05;8.15;;;1.80;67.10;;;;;;5098012;28;20233;-84
2022/03/07 01:31:18;;;;;;;9.32;8.38;;;1.80;66.80;;;;;;5097292;28;20246;-84
2022/03/07 01:33:44;;;;;;;9.63;8.82;;;1.90;66.40;;;;;;5084084;28;20205;-84
2022/03/07 01:36:11;;;;;;;10.55;9.30;;;1.90;66.30;;;;;;5098613;28;20203;-84
2022/03/07 01:38:38;;;;;;;9.02;8.13;;;1.90;66.20;;;;;;5085187;28;20210;-84
2022/03/07 01:41:04;;;;;;;10.02;9.25;;;1.80;66.00;;;;;;5090848;28;20668;-84
2022/03/07 01:43:33;;;;;;;7.68;6.95;;;1.80;66.20;;;;;;5088588;28;20658;-84
2022/03/07 01:45:59;;;;;;;9.98;7.25;;;1.80;65.90;;;;;;5083968;28;20200;-84
2022/03/07 01:48:26;;;;;;;13.32;8.35;;;1.80;66.10;;;;;;5086238;28;20225;-84
2022/03/07 01:50:53;;;;;;;8.50;7.80;;;1.70;65.90;;;;;;5086030;28;20202;-84
2022/03/07 01:53:21;;;;;;;9.68;8.73;;;1.70;66.00;;;;;;5089891;28;20206;-84
2022/03/07 01:55:48;;;;;;;8.30;7.60;;;1.70;66.30;;;;;;5095970;28;20700;-84
2022/03/07 01:58:15;;;;;;;9.93;8.93;;;1.50;65.60;;;;;;5096252;28;20217;-84
2022/03/07 02:00:43;;;;;;;8.38;7.68;;;1.40;65.90;;;;;;5099214;28;20199;-84
2022/03/07 02:03:10;;;;;;;7.93;7.22;;;1.50;66.30;;;;;;5085459;28;20210;-84
2022/03/07 02:05:36;;;;;;;7.88;6.95;;;1.50;65.80;;;;;;5095247;28;20200;-83
2022/03/07 02:08:03;;;;;;;8.75;7.93;;;1.40;65.70;;;;;;5088093;28;20723;-84
2022/03/07 02:10:30;;;;;;;11.50;7.68;;;1.30;65.60;;;;;;5093713;28;20206;-84
2022/03/07 02:12:57;;;;;;;11.52;8.75;;;1.30;66.20;;;;;;5086107;28;20203;-84
2022/03/07 02:15:24;;;;;;;8.60;7.70;;;1.40;66.40;;;;;;5080524;28;20203;-84
2022/03/07 02:17:52;;;;;;;9.38;8.48;;;1.40;66.50;;;;;;5080179;28;20228;-85
2022/03/07 02:20:18;;;;;;;8.73;8.05;;;1.50;66.40;;;;;;5080822;28;20202;-84
2022/03/07 02:22:47;;;;;;;8.20;7.40;;;1.50;66.00;;;;;;5080232;28;20208;-83
2022/03/07 02:25:14;;;;;;;10.07;9.07;;;1.40;65.80;;;;;;5079895;28;20211;-84
2022/03/07 02:27:40;;;;;;;11.10;8.63;;;1.40;66.00;;;;;;5079244;28;20229;-84
2022/03/07 02:30:08;;;;;;;8.57;7.68;;;1.40;66.00;;;;;;5079463;28;20230;-84
2022/03/07 02:32:35;;;;;;;7.50;6.90;;;1.30;65.80;;;;;;5079584;28;20208;-84
2022/03/07 02:35:02;;;;;;;11.23;8.63;;;1.20;66.20;;;;;;5080205;28;20208;-84
2022/03/07 02:37:30;;;;;;;11.52;7.10;;;1.10;66.10;;;;;;5079700;28;20729;-84
2022/03/07 02:39:58;;;;;;;7.97;7.38;;;1.10;66.40;;;;;;5080247;28;20200;-84
2022/03/07 02:42:25;;;;;;;7.78;7.07;;;1.00;66.40;;;;;;5079727;28;20320;-84
2022/03/07 02:44:52;;;;;;;8.50;7.78;;;0.90;66.70;;;;;;5079676;28;20208;-84
2022/03/07 02:47:18;;;;;;;7.93;7.10;;;0.80;67.30;;;;;;5086571;28;20223;-84
2022/03/07 02:49:45;;;;;;;7.85;7.15;;;0.80;67.30;;;;;;5079050;28;20715;-84
2022/03/07 02:52:12;;;;;;;10.07;8.52;;;0.70;67.60;;;;;;5082169;28;20214;-84
2022/03/07 02:54:39;;;;;;;8.98;8.18;;;0.60;67.80;;;;;;5083017;28;20207;-84
2022/03/07 02:57:07;;;;;;;9.38;8.32;;;0.60;68.00;;;;;;5082927;28;20200;-84
2022/03/07 02:59:34;;;;;;;8.80;6.97;;;0.60;68.00;;;;;;5082632;28;20201;-83
2022/03/07 03:02:01;;;;;;;8.02;7.13;;;0.50;68.10;;;;;;5082783;28;20215;-84
2022/03/07 03:04:28;;;;;;;8.27;7.45;;;0.40;68.30;;;;;;5082887;28;20197;-83
2022/03/07 03:06:54;;;;;;;8.13;7.38;;;0.30;68.50;;;;;;5082424;28;20211;-83
2022/03/07 03:09:21;;;;;;;8.35;7.75;;;0.20;68.90;;;;;;5082873;28;20221;-84
2022/03/07 03:11:48;;;;;;;8.27;7.43;;;0.20;69.20;;;;;;5082795;28;20668;-83
2022/03/07 03:14:16;;;;;;;10.85;6.80;;;0.00;68.90;;;;;;5082622;28;20201;-83
2022/03/07 03:16:43;;;;;;;8.13;7.38;;;0.10;69.50;;;;;;5083282;28;20209;-83
2022/03/07 03:19:09;;;;;;;8.30;7.22;;;0.00;69.50;;;;;;5082906;28;20213;-83
2022/03/07 03:21:36;;;;;;;7.72;7.00;;;-0.20;69.40;;;;;;5082499;28;20230;-84
2022/03/07 03:24:03;;;;;;;7.55;6.85;;;-0.20;69.50;;;;;;5082748;28;20204;-83
2022/03/07 03:26:30;;;;;;;10.25;7.78;;;-0.10;69.80;;;;;;5082591;28;20280;-84
2022/03/07 03:28:56;;;;;;;8.93;7.68;;;-0.20;70.00;;;;;;5107445;22;20238;-78
2022/03/07 03:31:24;;;;;;;7.30;6.70;;;-0.20;70.00;;;;;;5099406;28;20657;-78
2022/03/07 03:33:53;;;;;;;9.73;8.73;;;-0.20;69.90;;;;;;5099468;28;20472;-79
2022/03/07 03:36:20;;;;;;;8.88;8.10;;;-0.30;70.10;;;;;;5100433;28;20226;-79
2022/03/07 03:38:46;;;;;;;8.10;7.30;;;-0.20;70.50;;;;;;5098783;28;20220;-78
2022/03/07 03:41:13;;;;;;;7.95;7.22;;;-0.20;70.40;;;;;;5097662;28;20197;-78
2022/03/07 03:43:40;;;;;;;8.63;7.53;;;-0.20;70.20;;;;;;5098455;28;20200;-78
2022/03/07 03:46:06;;;;;;;9.60;8.48;;;-0.40;70.30;;;;;;5097945;28;20203;-78
2022/03/07 03:48:35;;;;;;;8.77;7.97;;;-0.30;70.60;;;;;;5098441;28;20220;-78
2022/03/07 03:51:01;;;;;;;8.45;7.68;;;-0.30;70.60;;;;;;5097159;28;20221;-78
2022/03/07 03:53:28;;;;;;;8.00;7.20;;;-0.40;70.40;;;;;;5097627;28;20216;-78
2022/03/07 03:55:55;;;;;;;10.30;7.30;;;-0.40;70.70;;;;;;5097486;28;20213;-78
2022/03/07 03:58:22;;;;;;;9.13;7.30;;;-0.30;71.00;;;;;;5097587;28;20228;-78
2022/03/07 04:00:49;;;;;;;8.70;7.93;;;-0.30;70.80;;;;;;5097872;28;20681;-78
2022/03/07 04:03:15;;;;;;;9.02;7.80;;;-0.30;70.80;;;;;;5096992;28;20200;-78
2022/03/07 04:05:43;;;;;;;9.93;8.40;;;-0.40;70.70;;;;;;5098362;28;20208;-78
2022/03/07 04:08:10;;;;;;;8.10;7.30;;;-0.50;70.80;;;;;;5081202;28;20221;-78
2022/03/07 04:10:37;;;;;;;11.85;10.00;;;-0.40;71.40;;;;;;5097583;28;20573;-78
2022/03/07 04:13:04;;;;;;;10.20;8.93;;;-0.50;71.30;;;;;;5097655;28;20589;-78
2022/03/07 04:15:31;;;;;;;8.13;7.30;;;-0.60;71.60;;;;;;5097057;28;20204;-78
2022/03/07 04:17:58;;;;;;;9.05;7.85;;;-0.60;71.70;;;;;;5097502;28;20260;-78
2022/03/07 04:20:24;;;;;;;9.70;8.80;;;-0.60;71.80;;;;;;5096728;28;20221;-78
2022/03/07 04:22:53;;;;;;;8.85;8.05;;;-0.50;71.90;;;;;;5097382;28;20205;-78
2022/03/07 04:25:20;;;;;;;8.55;7.70;;;-0.60;71.90;;;;;;5097219;28;20198;-78
2022/03/07 04:27:47;;;;;;;9.10;8.30;;;-0.50;71.90;;;;;;5096869;28;20232;-78
2022/03/07 04:30:14;;;;;;;8.98;8.18;;;-0.60;71.90;;;;;;5096354;28;20192;-77
2022/03/07 04:32:41;;;;;;;9.93;8.90;;;-0.70;71.90;;;;;;5096888;28;20196;-78
2022/03/07 04:35:10;;;;;;;9.52;8.35;;;-0.70;72.40;;;;;;5096228;28;20193;-78
2022/03/07 04:37:39;;;;;;;10.65;8.60;;;-0.80;72.50;;;;;;5096469;28;20221;-78
2022/03/07 04:40:09;;;;;;;10.35;9.10;;;-0.80;73.80;;;;;;5096698;28;20599;-78
2022/03/07 04:42:36;;;;;;;9.93;8.18;;;-1.00;73.60;;;;;;5095991;28;20260;-77
2022/03/07 04:45:03;;;;;;;10.75;8.90;;;-1.00;73.80;;;;;;5107055;28;20204;-77
2022/03/07 04:47:30;;;;;;;9.52;8.57;;;-0.90;73.90;;;;;;5110590;28;20196;-78
2022/03/07 04:49:56;;;;;;;12.70;11.38;;;-0.80;73.90;;;;;;5107048;28;20192;-78
2022/03/07 04:52:23;;;;;;;9.63;8.73;;;-0.80;73.70;;;;;;5098084;28;20692;-78
2022/03/07 04:54:50;;;;;;;10.85;7.88;;;-0.90;73.80;;;;;;5097209;28;20201;-78
2022/03/07 04:57:18;;;;;;;13.07;9.20;;;-0.80;74.10;;;;;;5106345;28;20196;-77
2022/03/07 04:59:45;;;;;;;10.20;8.70;;;-0.80;73.90;;;;;;5112105;28;20223;-77
2022/03/07 05:02:13;;;;;;;15.35;10.07;;;-0.70;74.00;;;;;;5107756;28;20688;-78
2022/03/07 05:04:40;;;;;;;10.13;8.90;;;-0.80;74.00;;;;;;5097552;28;20302;-78
2022/03/07 05:07:06;;;;;;;11.65;9.50;;;-0.80;74.30;;;;;;5096841;28;20666;-78
2022/03/07 05:09:34;;;;;;;13.38;8.73;;;-1.00;74.70;;;;;;5105554;28;20230;-77
2022/03/07 05:12:00;;;;;;;10.43;7.72;;;-1.00;75.30;;;;;;5110551;28;20196;-77
2022/03/07 05:14:29;;;;;;;12.70;8.75;;;-1.10;75.70;;;;;;5105449;28;20204;-78
2022/03/07 05:16:55;;;;;;;11.60;10.10;;;-1.20;76.30;;;;;;5080019;28;20576;-78
2022/03/07 05:19:23;;;;;;;13.15;9.88;;;-1.20;77.00;;;;;;5096587;28;20224;-78
2022/03/07 05:21:50;;;;;;;11.95;9.80;;;-1.20;77.10;;;;;;5095027;28;20208;-78
2022/03/07 05:24:17;;;;;;;10.65;9.45;;;-1.10;77.50;;;;;;5095066;28;20223;-77
2022/03/07 05:26:44;;;;;;;11.70;9.25;;;-1.10;78.00;;;;;;5094995;28;20230;-78
2022/03/07 05:29:11;;;;;;;13.00;9.90;;;-1.00;78.20;;;;;;5095345;28;20697;-78
2022/03/07 05:31:39;;;;;;;13.00;10.07;;;-1.20;78.50;;;;;;5093919;28;20550;-78
2022/03/07 05:34:05;;;;;;;11.73;9.50;;;-1.30;79.30;;;;;;5095418;28;20201;-77
2022/03/07 05:36:32;;;;;;;11.90;10.60;;;-1.30;80.00;;;;;;5094945;28;20204;-78
2022/03/07 05:38:59;;;;;;;11.70;9.63;;;-1.30;80.80;;;;;;5095248;28;20224;-78
2022/03/07 05:41:26;;;;;;;11.45;9.02;;;-1.20;81.30;;;;;;5094716;28;20200;-78
2022/03/07 05:43:52;;;;;;;10.98;9.25;;;-1.20;81.70;;;;;;5095099;28;20201;-78
2022/03/07 05:46:19;;;;;;;16.00;9.75;;;-1.20;81.70;;;;;;5095041;28;20204;-78
2022/03/07 05:48:47;;;;;;;10.95;9.90;;;-1.10;81.90;;;;;;5094893;28;20227;-78
2022/03/07 05:51:15;;;;;;;12.05;9.75;;;-1.00;82.10;;;;;;5095739;28;20245;-78
2022/03/07 05:53:42;;;;;;;12.68;10.25;;;-1.00;82.20;;;;;;5095773;28;20311;-77
2022/03/07 05:56:09;;;;;;;14.27;10.30;;;-1.00;82.40;;;;;;5095530;28;20211;-78
2022/03/07 05:58:36;;;;;;;10.13;9.20;;;-1.10;82.60;;;;;;5095385;28;20228;-78
2022/03/07 06:01:03;;;;;;;12.15;10.23;;;-1.00;83.20;;;;;;5095425;28;20220;-78
2022/03/07 06:03:29;;;;;;;12.20;9.65;;;-1.00;83.20;;;;;;5095638;28;20204;-78
2022/03/07 06:05:58;;;;;;;11.63;9.77;;;-0.90;83.00;;;;;;5075181;28;20212;-77
2022/03/07 06:08:25;;;;;;;14.05;9.60;;;-1.00;83.20;;;;;;5075115;28;20698;-78
2022/03/07 06:10:51;;;;;;;14.65;10.95;;;-1.00;83.80;;;;;;5091965;28;20194;-78
2022/03/07 06:13:19;;;;;;;10.02;8.75;;;-1.00;83.90;;;;;;5095531;28;20208;-78
2022/03/07 06:15:46;;;;;;;15.25;10.50;;;-0.90;84.00;;;;;;5094741;28;20205;-78
2022/03/07 06:18:13;;;;;;;15.73;11.93;;;-1.00;84.50;;;;;;5095610;28;20234;-78
2022/03/07 06:20:41;;;;;;;10.25;9.15;;;-1.00;84.90;;;;;;5103979;28;20218;-77
2022/03/07 06:23:09;;;;;;;14.18;10.38;;;-1.10;85.00;;;;;;5104293;28;20200;-77
2022/03/07 06:25:36;;;;;;;13.50;9.80;;;-1.10;85.30;;;;;;5100731;28;20204;-78
2022/03/07 06:28:03;;;;;;;9.40;8.50;;;-1.00;85.50;;;;;;5104384;28;20251;-78
2022/03/07 06:30:31;;;;;;;11.13;9.68;;;-0.90;85.30;;;;;;5110981;28;20200;-78
2022/03/07 06:32:57;;;;;;;10.80;9.70;;;-0.90;85.00;;;;;;5101177;28;20209;-78
2022/03/07 06:35:24;;;;;;;11.70;8.90;;;-0.80;84.80;;;;;;5103617;28;20203;-78
2022/03/07 06:37:53;;;;;;;13.15;11.23;;;-0.90;84.80;;;;;;5102585;28;20221;-78
2022/03/07 06:40:22;;;;;;;10.35;9.30;;;-0.80;85.50;;;;;;5103040;28;20216;-78
2022/03/07 06:42:49;;;;;;;16.40;10.52;;;-0.80;85.50;;;;;;5104288;28;20204;-78
2022/03/07 06:45:17;;;;;;;9.60;8.52;;;-0.80;85.10;;;;;;5101291;28;20208;-78
2022/03/07 06:47:45;;;;;;;14.52;9.20;;;-0.80;85.30;;;;;;5099736;28;20224;-78
2022/03/07 06:50:12;;;;;;;11.50;9.02;;;-0.70;85.00;;;;;;5100345;28;20195;-78
2022/03/07 06:52:39;;;;;;;13.50;10.48;;;-0.60;84.50;;;;;;5100251;28;20201;-79
2022/03/07 06:55:06;;;;;;;13.80;10.05;;;-0.60;84.40;;;;;;5101111;28;20232;-79
2022/03/07 06:57:35;;;;;;;11.05;9.32;;;-0.60;83.70;;;;;;5100847;28;20876;-79
2022/03/07 07:00:02;;;;;;;14.15;9.65;;;-0.50;83.90;;;;;;5099790;28;20227;-79
2022/03/07 07:02:28;;;;;;;10.82;8.48;;;-0.40;83.70;;;;;;5100779;28;20204;-78
2022/03/07 07:04:55;;;;;;;10.95;8.57;;;-0.40;83.40;;;;;;5099550;28;20201;-79
2022/03/07 07:07:22;;;;;;;11.40;10.20;;;-0.30;86.80;;;;;;5098769;28;20567;-78
2022/03/07 07:09:49;;;;;;;8.95;8.10;;;-0.40;87.80;;;;;;5105325;28;20200;-78
2022/03/07 07:12:15;;;;;;;8.70;7.70;;;-0.30;88.10;;;;;;5103904;28;20697;-78
2022/03/07 07:14:43;;;;;;;9.93;8.07;;;-0.10;86.70;;;;;;5099943;28;20715;-79
2022/03/07 07:17:10;;;;;;;11.60;9.55;;;0.00;85.80;;;;;;5098513;28;20207;-78
2022/03/07 07:19:37;;;;;;;8.45;7.60;;;0.10;85.30;;;;;;5096666;28;20208;-78
2022/03/07 07:22:04;;;;;;;10.48;9.40;;;0.20;84.10;;;;;;5096194;28;20202;-78
2022/03/07 07:24:31;;;;;;;11.73;10.50;;;0.40;82.70;;;;;;5106434;28;20197;-78
2022/03/07 07:26:58;;;;;;;10.70;8.55;;;0.30;81.90;;;;;;5106766;28;20196;-78
2022/03/07 07:29:25;;;;;;;9.88;8.88;;;0.50;81.10;;;;;;5104408;28;20236;-78
2022/03/07 07:31:53;;;;;;;10.90;9.80;;;0.50;80.80;;;;;;5106873;28;20202;-78
2022/03/07 07:34:20;;;;;;;10.63;9.18;;;0.50;80.80;;;;;;5113026;28;20200;-78
2022/03/07 07:36:47;;;;;;;10.27;8.93;;;0.60;80.80;;;;;;5096479;28;20206;-78
2022/03/07 07:39:14;;;;;;;12.55;8.98;;;0.40;80.10;;;;;;5096853;28;20217;-78
2022/03/07 07:41:41;;;;;;;14.52;11.45;;;0.30;80.50;;;;;;5096828;28;20236;-78
2022/03/07 07:44:07;;;;;;;12.82;10.02;;;0.40;81.00;;;;;;5097764;28;20669;-78
2022/03/07 07:46:34;;;;;;;14.90;8.95;;;0.40;80.90;;;;;;5097538;28;20197;-78
2022/03/07 07:49:03;;;;;;;10.90;9.70;;;0.40;80.20;;;;;;5097293;28;20222;-78
2022/03/07 07:51:29;;;;;;;13.00;8.85;;;0.60;80.30;;;;;;5098543;28;20209;-78
2022/03/07 07:53:56;;;;;;;14.02;10.20;;;0.60;80.00;;;;;;5099346;28;20552;-78
2022/03/07 07:56:23;;;;;;;11.00;9.02;;;0.70;79.80;;;;;;5105262;28;20217;-78
2022/03/07 07:58:50;;;;;;;10.10;9.10;;;0.70;79.60;;;;;;5103489;27;20218;-78
2022/03/07 08:01:16;;;;;;;8.75;7.85;;;0.70;79.20;;;;;;5102386;28;20214;-79
2022/03/07 08:03:43;;;;;;;10.85;9.35;;;0.80;79.30;;;;;;5096102;28;20202;-79
2022/03/07 08:06:11;;;;;;;11.75;9.65;;;0.80;79.00;;;;;;5110425;28;20587;-80
2022/03/07 08:08:38;;;;;;;11.10;8.18;;;1.00;79.00;;;;;;5095771;28;20225;-78
2022/03/07 08:11:05;;;;;;;8.93;8.02;;;1.20;79.00;;;;;;5096604;28;20197;-79
2022/03/07 08:13:33;;;;;;;10.80;9.90;;;1.30;78.30;;;;;;5103548;28;20216;-82
2022/03/07 08:16:00;;;;;;;11.88;8.63;;;1.40;77.90;;;;;;5106495;28;20206;-83
2022/03/07 08:18:27;;;;;;;12.20;10.43;;;1.50;77.10;;;;;;5098548;28;20230;-79
2022/03/07 08:20:56;;;;;;;11.07;9.02;;;1.50;76.00;;;;;;5095422;28;20218;-79
2022/03/07 08:23:24;;;;;;;12.20;8.32;;;1.60;75.90;;;;;;5095403;28;20208;-78
2022/03/07 08:25:51;;;;;;;11.68;9.68;;;1.70;75.40;;;;;;5091851;28;20200;-79
2022/03/07 08:28:18;;;;;;;11.57;9.70;;;1.70;74.80;;;;;;5093349;28;20609;-80
2022/03/07 08:30:46;;;;;;;10.00;9.00;;;1.70;74.70;;;;;;5092481;28;20904;-79
2022/03/07 08:33:12;;;;;;;10.32;8.50;;;1.70;75.00;;;;;;5074972;28;20218;-79
2022/03/07 08:35:39;;;;;;;12.60;9.45;;;1.80;74.60;;;;;;5083473;28;20207;-79
2022/03/07 08:38:06;;;;;;;10.43;8.90;;;1.90;74.10;;;;;;5084842;28;20314;-80
2022/03/07 08:40:34;;;;;;;10.68;9.60;;;2.00;73.70;;;;;;5078480;28;20221;-79
2022/03/07 08:43:01;;;;;;;10.90;9.60;;;2.20;73.40;;;;;;5105529;28;20198;-79
2022/03/07 08:45:27;;;;;;;12.23;9.13;;;2.30;72.90;;;;;;5110863;28;20555;-79
2022/03/07 08:47:55;;;;;;;11.25;9.32;;;2.20;71.70;;;;;;5095064;28;20236;-80
2022/03/07 08:50:22;;;;;;;9.63;8.70;;;2.10;72.10;;;;;;5095753;28;20632;-79
2022/03/07 08:52:49;;;;;;;10.77;9.68;;;2.20;72.70;;;;;;5094719;28;20200;-79
2022/03/07 08:55:16;;;;;;;12.60;9.10;;;2.40;72.70;;;;;;5085773;28;20212;-80
2022/03/07 08:57:44;;;;;;;11.15;8.40;;;2.70;71.40;;;;;;5074264;28;20237;-79
2022/03/07 09:00:13;;;;;;;10.80;9.10;;;2.90;69.10;;;;;;5084466;28;20197;-80
2022/03/07 09:02:40;;;;;;;12.40;9.70;;;3.00;68.00;;;;;;5093941;28;20672;-79
2022/03/07 09:05:08;;;;;;;14.05;11.85;;;3.10;67.80;;;;;;5095402;28;20203;-79
2022/03/07 09:07:48;;;;;;;11.00;8.95;;;3.10;67.50;;;;;;5122913;22;20568;-80
2022/03/07 09:10:17;;;;;;;10.38;8.27;;;3.20;67.10;;;;;;5066794;28;20212;-80
2022/03/07 09:12:48;;;;;;;10.18;9.18;;;3.40;65.90;;;;;;5055991;28;20197;-80
2022/03/07 09:15:14;;;;;;;15.25;8.77;;;3.50;65.50;;;;;;5070733;28;20225;-80
2022/03/07 09:17:41;;;;;;;11.10;10.10;;;3.50;65.40;;;;;;5079440;28;20739;-81
2022/03/07 09:20:34;;;;;;;9.75;8.35;;;3.60;64.20;;;;;;5078712;28;20209;-82
2022/03/07 09:23:04;;;;;;;10.80;9.43;;;3.50;63.90;;;;;;5079664;28;20227;-81
2022/03/07 09:25:31;;;;;;;10.68;8.50;;;3.50;63.80;;;;;;5077905;28;20208;-80
2022/03/07 09:27:59;;;;;;;11.77;9.32;;;3.60;63.60;;;;;;5102313;22;21183;-81
2022/03/07 09:30:26;;;;;;;9.98;8.82;;;3.60;63.20;;;;;;5082431;28;20214;-84
2022/03/07 09:32:54;;;;;;;10.50;9.45;;;3.60;62.60;;;;;;5095606;28;20202;-86
2022/03/07 09:35:21;;;;;;;10.95;9.82;;;3.70;62.90;;;;;;5101987;28;20233;-84
2022/03/07 09:37:48;;;;;;;10.70;9.70;;;3.70;62.30;;;;;;5101970;28;20206;-85
2022/03/07 09:40:15;;;;;;;10.05;8.93;;;3.70;62.40;;;;;;5099805;28;20219;-85
2022/03/07 09:42:42;;;;;;;11.00;10.10;;;3.70;62.80;;;;;;5099535;28;20197;-83
2022/03/07 09:45:13;;;;;;;13.57;10.70;;;3.80;63.00;;;;;;5103066;28;20204;-84
2022/03/07 09:47:41;;;;;;;11.13;10.00;;;3.90;63.20;;;;;;5101645;28;20212;-84
2022/03/07 09:50:10;;;;;;;12.63;9.10;;;4.00;62.40;;;;;;5083078;28;20212;-82
2022/03/07 09:52:38;;;;;;;8.60;7.70;;;3.80;61.80;;;;;;5099744;28;20208;-85
2022/03/07 09:55:07;;;;;;;10.93;9.77;;;3.90;62.20;;;;;;5102398;28;20208;-84
2022/03/07 09:57:34;;;;;;;9.13;8.32;;;3.90;62.30;;;;;;5101915;28;20196;-85
2022/03/07 10:00:01;;;;;;;10.38;9.38;;;4.00;61.00;;;;;;5101444;28;20200;-84
2022/03/07 10:02:29;;;;;;;9.73;8.68;;;4.10;61.40;;;;;;5100133;28;20680;-83
2022/03/07 10:05:00;;;;;;;13.10;10.38;;;4.30;62.20;;;;;;5101017;28;20204;-81
2022/03/07 10:07:28;;;;;;;13.07;10.57;;;4.40;60.90;;;;;;5083828;28;20582;-83
2022/03/07 10:10:04;;;;;;;11.63;8.68;;;4.50;60.90;;;;;;5084198;28;20228;-82
2022/03/07 10:12:31;;;;;;;17.40;10.02;;;4.70;60.70;;;;;;5084294;28;20208;-82
2022/03/07 10:14:58;;;;;;;11.13;9.98;;;4.70;60.90;;;;;;5099154;28;20200;-84
2022/03/07 10:17:26;;;;;;;10.63;9.55;;;4.90;60.80;;;;;;5099498;28;20204;-82
2022/03/07 10:19:56;;;;;;;11.32;10.13;;;5.00;59.70;;;;;;5100087;28;20224;-84
2022/03/07 10:22:25;;;;;;;10.70;9.32;;;5.10;59.60;;;;;;5098896;28;20260;-83
2022/03/07 10:25:00;;;;;;;13.25;9.75;;;5.30;59.90;;;;;;5099621;28;20200;-83
2022/03/07 10:27:28;;;;;;;9.25;8.27;;;5.10;59.00;;;;;;5100123;28;20206;-84
2022/03/07 10:29:55;;;;;;;11.95;10.75;;;5.40;59.00;;;;;;5102186;28;20239;-82
2022/03/07 10:32:22;;;;;;;11.20;10.07;;;5.70;58.90;;;;;;5101374;28;20193;-83
2022/03/07 10:34:49;;;;;;;12.25;10.30;;;5.70;58.40;;;;;;5083821;28;20280;-84
2022/03/07 10:37:18;;;;;;;12.70;10.98;;;5.70;58.60;;;;;;5090322;28;20204;-80
2022/03/07 10:39:52;;;;;;;11.50;10.25;;;5.70;58.50;;;;;;5104501;28;20240;-84
2022/03/07 10:42:20;;;;;;;13.15;10.77;;;5.80;58.70;;;;;;5103829;28;20247;-84
2022/03/07 10:44:48;;;;;;;11.20;10.10;;;5.90;58.60;;;;;;5100656;28;20232;-83
2022/03/07 10:47:17;;;;;;;11.40;9.13;;;6.20;57.90;;;;;;5098954;28;20578;-82
2022/03/07 10:52:39;;;;;;;11.20;10.13;;;6.50;57.40;;;;;;5104519;28;20205;-84
2022/03/07 10:55:10;;;;;;;9.82;8.95;;;6.70;56.80;;;;;;5104384;28;20211;-82
2022/03/07 10:57:40;;;;;;;11.07;9.75;;;6.80;55.80;;;;;;5106768;28;20263;-83
2022/03/07 11:00:10;;;;;;;12.02;10.93;;;6.90;55.80;;;;;;5111847;28;20211;-78
2022/03/07 11:02:41;;;;;;;11.82;10.40;;;7.10;56.60;;;;;;5106301;28;20228;-79
2022/03/07 11:05:19;;;;;;;10.25;9.32;;;7.40;56.10;;;;;;5100202;28;20200;-81
2022/03/07 11:08:25;;;;;;;13.10;10.80;;;7.80;55.40;;;;;;5114530;22;20196;-82
2022/03/07 11:14:36;;;;;;;13.02;11.05;;;8.00;52.00;;;;;;4953076;28;20457;-83
2022/03/07 11:17:04;;;;;;;15.75;11.10;;;7.20;53.00;;;;;;5101882;28;20204;-81
2022/03/07 11:19:33;;;;;;;10.48;9.45;;;7.10;53.30;;;;;;5103209;28;20229;-79
2022/03/07 11:22:00;;;;;;;11.18;10.18;;;7.10;53.70;;;;;;5083440;28;20228;-81
2022/03/07 11:24:29;;;;;;;12.73;11.07;;;7.00;53.70;;;;;;5082891;28;20201;-82
2022/03/07 11:26:56;;;;;;;10.80;9.80;;;7.00;54.00;;;;;;5083033;28;20731;-82
2022/03/07 11:29:34;;;;;;;10.65;9.55;;;7.20;54.30;;;;;;5082227;28;20235;-82
2022/03/07 11:32:02;;;;;;;12.98;11.85;;;7.10;53.60;;;;;;5082358;28;20343;-81
2022/03/07 11:34:28;;;;;;;11.35;9.38;;;7.10;53.50;;;;;;5082632;28;20205;-81
2022/03/07 11:36:55;;;;;;;11.45;10.20;;;7.30;54.40;;;;;;5082933;28;20206;-79
2022/03/07 11:39:32;;;;;;;10.32;9.52;;;7.80;54.50;;;;;;5082625;28;20599;-81
2022/03/07 11:42:09;;;;;;;12.15;10.80;;;8.60;53.40;;;;;;5081246;28;20233;-81
2022/03/07 11:44:36;;;;;;;10.97;9.60;;;9.40;52.50;;;;;;5089898;28;20217;-82
2022/03/07 11:47:09;;;;;;;11.40;10.40;;;10.20;49.30;;;;;;5088402;28;20457;-82
2022/03/07 11:49:36;;;;;;;10.40;9.40;;;10.70;48.20;;;;;;5084319;28;20480;-82
2022/03/07 11:52:05;;;;;;;12.20;10.67;;;11.10;47.10;;;;;;5083207;28;20431;-82
2022/03/07 11:54:33;;;;;;;10.80;9.77;;;11.70;46.60;;;;;;5089937;28;20462;-82
2022/03/07 11:57:07;;;;;;;10.80;9.70;;;12.60;45.40;;;;;;5082116;28;20450;-82
2022/03/07 11:59:34;;;;;;;11.13;10.13;;;12.70;43.30;;;;;;5082786;28;20472;-82
2022/03/07 12:02:01;;;;;;;12.67;11.47;;;12.40;42.10;;;;;;5081277;28;20486;-82
2022/03/07 12:04:38;;;;;;;12.50;11.30;;;12.00;42.00;;;;;;5081601;28;20453;-82
2022/03/07 12:07:05;;;;;;;12.03;10.80;;;11.70;42.80;;;;;;5082239;28;20453;-81
2022/03/07 12:09:35;;;;;;;11.70;10.50;;;11.60;43.50;;;;;;5081761;28;20482;-81
2022/03/07 12:12:03;;;;;;;12.17;10.97;;;11.60;42.90;;;;;;5082260;28;20940;-80
2022/03/07 12:14:32;;;;;;;11.90;10.80;;;11.70;43.00;;;;;;5082071;28;20462;-81
2022/03/07 12:17:01;;;;;;;12.30;10.73;;;12.00;42.60;;;;;;5083592;28;20446;-82
2022/03/07 12:19:29;;;;;;;11.73;10.53;;;12.10;42.30;;;;;;5086110;28;20499;-80
2022/03/07 12:21:56;;;;;;;12.30;11.20;;;12.40;41.70;;;;;;5083517;28;20902;-80
2022/03/07 12:24:25;;;;;;;11.13;9.93;;;13.10;42.40;;;;;;5085234;28;20447;-81
2022/03/07 12:26:54;;;;;;;12.50;11.30;;;13.70;41.10;;;;;;5082258;28;20498;-82
2022/03/07 12:29:23;;;;;;;10.80;9.90;;;14.10;39.30;;;;;;5081762;28;20471;-81
2022/03/07 12:31:52;;;;;;;10.67;9.67;;;13.80;38.90;;;;;;5082531;28;20648;-82
2022/03/07 12:34:20;;;;;;;11.23;10.13;;;14.30;39.40;;;;;;5086059;28;20451;-81
2022/03/07 12:36:57;;;;;;;12.50;10.93;;;14.30;38.70;;;;;;5083626;28;20445;-81
2022/03/07 12:39:24;;;;;;;11.20;10.00;;;14.50;38.40;;;;;;5086174;28;20477;-82
2022/03/07 12:41:50;;;;;;;11.00;10.00;;;14.50;38.00;;;;;;5085420;28;21062;-79
2022/03/07 12:44:19;;;;;;;11.60;10.53;;;15.00;37.40;;;;;;5082092;28;20475;-82
2022/03/07 12:46:45;;;;;;;9.83;9.00;;;15.70;37.10;;;;;;5081899;28;20978;-81
2022/03/07 12:49:17;;;;;;;11.53;10.53;;;16.10;35.60;;;;;;5082058;28;20555;-82
2022/03/07 12:51:44;;;;;;;11.70;10.70;;;16.60;35.40;;;;;;5080956;28;20443;-84